Time;durP1;ratioP1;P1;durP2;ratioP2;P2;SDS_P1;SDS_P2;PMS_P1;PMS_P2;Temp;Humidity;BMP_temperature;BMP_pressure;BME280_temperature;BME280_humidity;BME280_pressure;Samples;Min_cycle;Max_cycle;Signal;HPM_P1;HPM_P2
2022/10/11 03:00:45;;;;;;;0.80;0.80;;;16.70;84.20;;;;;;5996488;23;20397;-76
2022/10/11 03:03:12;;;;;;;1.00;1.00;;;16.70;84.40;;;;;;4974807;28;20438;-76
2022/10/11 03:05:40;;;;;;;1.37;0.90;;;16.70;84.40;;;;;;4974816;28;20455;-77
2022/10/11 03:08:07;;;;;;;2.10;1.10;;;16.70;84.40;;;;;;4974492;28;20458;-77
2022/10/11 03:10:34;;;;;;;1.20;1.10;;;16.70;84.50;;;;;;4974576;28;20481;-77
2022/10/11 03:13:01;;;;;;;1.03;0.90;;;16.70;84.60;;;;;;4974272;28;20450;-77
2022/10/11 03:15:28;;;;;;;1.20;1.00;;;16.80;84.40;;;;;;4976026;28;20857;-77
2022/10/11 03:17:57;;;;;;;1.10;1.00;;;16.70;84.50;;;;;;4974290;28;20453;-77
2022/10/11 03:20:24;;;;;;;0.90;0.90;;;16.70;84.50;;;;;;4974096;28;20993;-77
2022/10/11 03:22:51;;;;;;;0.90;0.90;;;16.80;84.60;;;;;;4974506;28;20454;-76
2022/10/11 03:25:18;;;;;;;1.30;1.07;;;16.80;84.60;;;;;;4974304;28;20867;-76
2022/10/11 03:27:45;;;;;;;0.90;0.90;;;16.80;84.50;;;;;;4974541;28;20457;-76
2022/10/11 03:30:12;;;;;;;0.83;0.83;;;16.90;84.50;;;;;;4974356;28;20504;-77
2022/10/11 03:32:39;;;;;;;0.90;0.90;;;16.90;84.40;;;;;;4974899;28;20466;-77
2022/10/11 03:35:08;;;;;;;0.90;0.90;;;16.90;84.40;;;;;;4974673;28;20520;-77
2022/10/11 03:37:34;;;;;;;1.13;1.03;;;16.90;84.50;;;;;;4974664;28;20525;-76
2022/10/11 03:40:02;;;;;;;1.07;1.07;;;16.90;84.60;;;;;;4974706;28;20453;-77
2022/10/11 03:42:29;;;;;;;1.97;1.20;;;16.90;84.60;;;;;;4975630;28;20888;-77
2022/10/11 03:44:56;;;;;;;1.10;1.00;;;16.90;84.80;;;;;;4975126;28;20473;-77
2022/10/11 03:47:22;;;;;;;1.20;1.10;;;16.90;84.90;;;;;;4974008;28;20461;-77
2022/10/11 03:49:49;;;;;;;1.03;1.03;;;16.90;85.00;;;;;;4973907;28;20966;-77
2022/10/11 03:52:17;;;;;;;1.00;1.00;;;16.90;85.00;;;;;;4974139;28;20474;-77
2022/10/11 03:54:44;;;;;;;1.10;1.10;;;16.90;85.20;;;;;;4974194;28;20453;-77
2022/10/11 03:57:10;;;;;;;1.20;1.10;;;16.90;85.00;;;;;;4975244;28;20461;-77
2022/10/11 03:59:37;;;;;;;1.00;1.00;;;16.90;84.90;;;;;;4977655;28;20453;-77
2022/10/11 04:02:04;;;;;;;1.23;1.13;;;16.80;85.10;;;;;;4977473;28;20497;-77
2022/10/11 04:04:31;;;;;;;1.20;1.10;;;16.80;85.30;;;;;;4978057;28;20504;-77
2022/10/11 04:06:57;;;;;;;1.10;1.10;;;16.80;85.30;;;;;;4977986;28;20453;-77
2022/10/11 04:09:25;;;;;;;1.40;1.30;;;16.80;85.30;;;;;;4977852;28;20526;-77
2022/10/11 04:11:52;;;;;;;1.70;1.60;;;16.80;85.20;;;;;;4977921;28;20462;-77
2022/10/11 04:14:19;;;;;;;1.77;1.67;;;16.80;85.30;;;;;;4977726;28;20485;-77
2022/10/11 04:16:45;;;;;;;1.50;1.40;;;16.90;85.30;;;;;;4977647;28;20458;-76
2022/10/11 04:19:12;;;;;;;1.50;1.40;;;16.90;85.30;;;;;;4977659;28;20450;-77
2022/10/11 04:21:39;;;;;;;1.73;1.63;;;16.90;85.40;;;;;;4977434;28;20485;-77
2022/10/11 04:24:06;;;;;;;1.53;1.43;;;16.90;85.30;;;;;;4977213;28;20516;-77
2022/10/11 04:26:34;;;;;;;1.83;1.73;;;16.90;85.40;;;;;;4977465;28;20457;-77
2022/10/11 04:29:01;;;;;;;1.70;1.60;;;16.90;85.60;;;;;;4977403;28;20446;-77
2022/10/11 04:31:27;;;;;;;1.70;1.60;;;16.90;85.60;;;;;;4977281;28;20481;-77
2022/10/11 04:33:54;;;;;;;1.57;1.47;;;16.90;85.70;;;;;;4977338;28;20442;-77
2022/10/11 04:36:21;;;;;;;1.73;1.63;;;16.90;85.60;;;;;;4977288;28;20461;-77
2022/10/11 04:38:47;;;;;;;1.70;1.60;;;16.90;85.60;;;;;;4977233;28;20446;-77
2022/10/11 04:41:15;;;;;;;1.93;1.83;;;16.90;85.50;;;;;;4977082;28;20486;-76
2022/10/11 04:43:43;;;;;;;1.40;1.30;;;16.90;85.60;;;;;;4976913;28;20970;-77
2022/10/11 04:46:10;;;;;;;1.90;1.80;;;16.80;85.60;;;;;;4977066;28;20450;-77
2022/10/11 04:48:37;;;;;;;2.10;2.00;;;16.80;85.70;;;;;;4976743;28;20853;-77
2022/10/11 04:51:04;;;;;;;1.80;1.70;;;16.80;85.70;;;;;;4976795;28;20872;-77
2022/10/11 04:53:31;;;;;;;1.60;1.50;;;16.80;85.60;;;;;;4976698;28;20462;-77
2022/10/11 04:55:59;;;;;;;1.53;1.47;;;16.90;85.50;;;;;;4976673;28;20457;-77
2022/10/11 04:58:26;;;;;;;2.00;1.90;;;16.90;85.30;;;;;;4977057;28;20552;-77
2022/10/11 05:00:55;;;;;;;1.63;1.53;;;16.90;85.20;;;;;;4976626;28;20857;-77
2022/10/11 05:03:22;;;;;;;1.53;1.47;;;16.90;85.20;;;;;;4976936;28;20446;-77
2022/10/11 05:05:49;;;;;;;2.20;1.77;;;16.90;85.10;;;;;;4976735;28;20458;-77
2022/10/11 05:08:16;;;;;;;2.13;2.03;;;16.80;85.20;;;;;;4976578;28;20521;-76
2022/10/11 05:10:42;;;;;;;1.60;1.50;;;16.80;85.20;;;;;;4976616;28;20473;-77
2022/10/11 05:13:09;;;;;;;1.80;1.70;;;16.70;85.40;;;;;;4976345;28;20942;-77
2022/10/11 05:15:36;;;;;;;1.60;1.50;;;16.70;85.40;;;;;;4976599;28;20458;-77
2022/10/11 05:18:04;;;;;;;2.30;2.20;;;16.70;85.30;;;;;;4976588;28;20454;-77
2022/10/11 05:20:30;;;;;;;1.60;1.50;;;16.80;85.10;;;;;;4976552;28;20474;-77
2022/10/11 05:22:57;;;;;;;1.80;1.70;;;16.70;85.20;;;;;;4976603;28;20558;-77
2022/10/11 05:25:24;;;;;;;1.97;1.83;;;16.80;85.00;;;;;;4978220;28;20458;-77
2022/10/11 05:27:50;;;;;;;1.90;1.80;;;16.80;85.10;;;;;;4976291;28;20942;-76
2022/10/11 05:30:17;;;;;;;2.23;2.13;;;16.80;85.20;;;;;;4976536;28;20450;-77
2022/10/11 05:32:44;;;;;;;1.73;1.63;;;16.70;85.40;;;;;;4976197;28;20473;-77
2022/10/11 05:35:12;;;;;;;1.93;1.83;;;16.80;85.40;;;;;;4976320;28;20462;-77
2022/10/11 05:37:38;;;;;;;1.90;1.80;;;16.80;85.20;;;;;;4975896;28;20946;-77
2022/10/11 05:40:07;;;;;;;2.10;2.00;;;16.80;85.50;;;;;;4976111;28;20466;-77
2022/10/11 05:42:33;;;;;;;1.80;1.70;;;16.80;85.40;;;;;;4975928;28;20493;-77
2022/10/11 05:45:00;;;;;;;1.60;1.50;;;16.80;85.30;;;;;;4975836;28;20946;-78
2022/10/11 05:47:27;;;;;;;2.13;2.03;;;16.80;85.20;;;;;;4976542;28;20525;-78
2022/10/11 05:49:53;;;;;;;1.73;1.63;;;16.90;85.30;;;;;;4976628;28;20458;-79
2022/10/11 05:52:21;;;;;;;2.37;2.27;;;16.90;85.20;;;;;;4976107;28;20462;-78
2022/10/11 05:54:48;;;;;;;2.20;2.10;;;16.90;85.10;;;;;;4975780;28;20849;-78
2022/10/11 05:57:15;;;;;;;1.73;1.63;;;16.80;85.30;;;;;;4975909;28;20446;-78
2022/10/11 05:59:42;;;;;;;1.63;1.57;;;16.80;85.50;;;;;;4976095;28;20454;-77
2022/10/11 06:02:11;;;;;;;2.00;1.90;;;16.90;85.40;;;;;;4975758;28;20505;-78
2022/10/11 06:04:38;;;;;;;1.60;1.50;;;16.90;85.30;;;;;;4976054;28;20484;-78
2022/10/11 06:07:05;;;;;;;2.10;2.00;;;16.90;85.20;;;;;;4975713;28;20449;-78
2022/10/11 06:09:34;;;;;;;2.00;1.90;;;16.90;85.20;;;;;;4975765;28;20454;-77
2022/10/11 06:12:01;;;;;;;1.80;1.70;;;16.90;84.90;;;;;;4975732;28;20462;-78
2022/10/11 06:14:28;;;;;;;1.93;1.83;;;16.80;85.10;;;;;;4975694;28;20453;-78
2022/10/11 06:16:54;;;;;;;2.20;2.10;;;16.70;85.50;;;;;;4975872;28;20458;-78
2022/10/11 06:19:21;;;;;;;2.47;2.37;;;16.60;85.50;;;;;;4975167;28;20467;-78
2022/10/11 06:21:48;;;;;;;1.90;1.80;;;16.70;85.50;;;;;;4974996;28;21012;-78
2022/10/11 06:24:15;;;;;;;1.80;1.70;;;16.60;85.70;;;;;;4975679;28;20505;-78
2022/10/11 06:26:43;;;;;;;1.93;1.83;;;16.60;85.60;;;;;;4975350;28;20450;-78
2022/10/11 06:29:10;;;;;;;1.80;1.70;;;16.60;85.50;;;;;;4975502;28;20446;-78
2022/10/11 06:31:37;;;;;;;2.00;1.90;;;16.60;85.50;;;;;;4975383;28;20561;-78
2022/10/11 06:34:04;;;;;;;1.57;1.47;;;16.60;85.50;;;;;;4979963;28;20937;-78
2022/10/11 06:36:30;;;;;;;2.13;2.00;;;16.60;85.50;;;;;;4975303;28;20473;-78
2022/10/11 06:38:59;;;;;;;1.80;1.70;;;16.70;85.30;;;;;;4975435;28;20446;-78
2022/10/11 06:41:28;;;;;;;1.97;1.87;;;16.80;85.10;;;;;;4975154;28;20840;-78
2022/10/11 06:43:56;;;;;;;2.40;2.30;;;16.60;85.40;;;;;;4975374;28;20864;-78
2022/10/11 06:46:25;;;;;;;2.10;2.00;;;16.70;85.30;;;;;;4975185;28;20454;-78
2022/10/11 06:48:52;;;;;;;2.00;1.90;;;16.70;85.20;;;;;;4975129;28;20454;-78
2022/10/11 06:51:21;;;;;;;1.90;1.80;;;16.70;85.10;;;;;;4975070;28;20471;-78
2022/10/11 06:53:50;;;;;;;2.17;2.07;;;16.80;85.10;;;;;;4974718;28;20508;-78
2022/10/11 06:56:17;;;;;;;1.70;1.60;;;16.80;84.90;;;;;;4974804;28;20895;-78
2022/10/11 06:58:44;;;;;;;1.70;1.60;;;16.80;84.80;;;;;;4975229;28;20458;-78
2022/10/11 07:01:15;;;;;;;2.40;2.30;;;16.80;84.80;;;;;;4975084;28;20481;-78
2022/10/11 07:03:41;;;;;;;2.07;1.97;;;16.80;84.70;;;;;;4975223;28;20556;-78
2022/10/11 07:06:10;;;;;;;1.97;1.87;;;16.80;84.70;;;;;;4975387;28;20446;-78
2022/10/11 07:08:37;;;;;;;2.17;2.07;;;16.70;84.80;;;;;;4975021;28;20458;-78
2022/10/11 07:11:06;;;;;;;2.10;2.00;;;16.70;84.80;;;;;;4975067;28;20473;-78
2022/10/11 07:13:33;;;;;;;1.90;1.80;;;16.80;84.90;;;;;;4975192;28;20529;-78
2022/10/11 07:16:00;;;;;;;2.53;2.43;;;16.80;84.90;;;;;;4975234;28;20454;-78
2022/10/11 07:18:28;;;;;;;2.13;2.03;;;16.80;84.80;;;;;;4975144;28;20553;-78
2022/10/11 07:20:55;;;;;;;2.00;1.90;;;16.70;84.90;;;;;;4975323;28;20469;-78
2022/10/11 07:23:23;;;;;;;2.13;2.03;;;16.70;85.20;;;;;;4975322;28;20488;-78
2022/10/11 07:25:53;;;;;;;2.43;2.33;;;16.70;85.10;;;;;;4975975;28;20450;-78
2022/10/11 07:28:20;;;;;;;2.17;2.07;;;16.60;85.50;;;;;;4975397;28;20439;-78
2022/10/11 07:30:46;;;;;;;2.03;1.93;;;16.50;85.40;;;;;;4976374;28;20473;-78
2022/10/11 07:33:13;;;;;;;1.90;1.80;;;16.60;85.70;;;;;;4978868;28;20450;-77
2022/10/11 07:35:41;;;;;;;2.53;2.43;;;16.70;85.50;;;;;;4983699;28;20455;-78
2022/10/11 07:38:08;;;;;;;1.90;1.80;;;16.80;85.40;;;;;;4978755;28;20446;-78
2022/10/11 07:40:42;;;;;;;2.07;1.97;;;16.80;85.10;;;;;;4978590;28;20450;-78
2022/10/11 07:43:08;;;;;;;2.00;1.90;;;16.80;85.20;;;;;;4978955;28;20501;-78
2022/10/11 07:45:37;;;;;;;2.00;1.90;;;16.80;85.50;;;;;;4978917;28;20454;-78
2022/10/11 07:48:04;;;;;;;2.20;2.10;;;16.70;85.40;;;;;;4978352;28;20964;-78
2022/10/11 07:50:31;;;;;;;2.00;1.90;;;16.80;85.30;;;;;;4978678;28;20500;-78
2022/10/11 07:52:59;;;;;;;1.90;1.80;;;16.90;85.10;;;;;;4978541;28;20446;-77
2022/10/11 07:55:26;;;;;;;1.90;1.80;;;17.00;85.00;;;;;;4978453;28;20458;-78
2022/10/11 07:57:54;;;;;;;2.00;1.90;;;17.00;84.60;;;;;;4978489;28;20446;-77
2022/10/11 08:00:21;;;;;;;1.90;1.80;;;17.00;84.60;;;;;;4979231;28;20453;-78
2022/10/11 08:02:48;;;;;;;1.90;1.80;;;17.00;84.40;;;;;;4978436;28;20557;-79
2022/10/11 08:05:14;;;;;;;2.10;2.00;;;17.00;84.50;;;;;;4980629;28;20460;-79
2022/10/11 08:07:41;;;;;;;1.70;1.60;;;17.00;84.10;;;;;;4980485;28;20446;-79
2022/10/11 08:10:10;;;;;;;2.37;2.17;;;17.00;84.10;;;;;;4978907;28;20921;-78
2022/10/11 08:12:37;;;;;;;2.00;1.90;;;16.80;85.10;;;;;;4978093;28;20470;-78
2022/10/11 08:15:05;;;;;;;1.97;1.87;;;16.70;85.20;;;;;;4978125;28;20446;-78
2022/10/11 08:17:31;;;;;;;1.80;1.70;;;16.70;85.50;;;;;;4978148;28;20458;-78
2022/10/11 08:19:58;;;;;;;1.93;1.83;;;16.80;85.40;;;;;;4978084;28;20496;-78
2022/10/11 08:22:25;;;;;;;2.00;1.90;;;16.90;85.30;;;;;;4977665;28;21020;-77
2022/10/11 08:24:51;;;;;;;2.20;2.10;;;16.90;84.50;;;;;;4977728;28;20454;-76
2022/10/11 08:27:19;;;;;;;2.07;1.97;;;16.90;85.10;;;;;;4977465;28;20453;-79
2022/10/11 08:29:46;;;;;;;1.77;1.67;;;17.10;84.50;;;;;;4978448;28;20446;-79
2022/10/11 08:32:13;;;;;;;2.13;2.03;;;17.10;84.30;;;;;;4977806;28;20473;-79
2022/10/11 08:34:39;;;;;;;2.03;1.93;;;17.20;84.30;;;;;;4978748;28;20445;-78
2022/10/11 08:37:06;;;;;;;2.10;2.00;;;17.30;84.00;;;;;;4977379;28;20835;-78
2022/10/11 08:39:33;;;;;;;2.20;2.00;;;17.20;83.80;;;;;;4977692;28;20447;-77
2022/10/11 08:42:03;;;;;;;2.30;1.70;;;17.10;83.60;;;;;;4977310;28;20477;-78
2022/10/11 08:44:37;;;;;;;2.50;2.40;;;17.10;84.00;;;;;;4976867;28;20450;-78
2022/10/11 08:47:10;;;;;;;1.97;1.87;;;17.10;84.00;;;;;;4977437;28;20438;-79
2022/10/11 08:49:39;;;;;;;2.10;1.90;;;17.10;83.70;;;;;;4977623;28;20442;-79
2022/10/11 08:52:13;;;;;;;2.43;2.33;;;17.10;83.90;;;;;;4978128;28;20470;-79
2022/10/11 08:54:46;;;;;;;2.27;2.17;;;17.10;83.80;;;;;;4977984;28;20430;-79
2022/10/11 08:57:15;;;;;;;1.93;1.83;;;17.10;83.90;;;;;;4978090;28;20529;-78
2022/10/11 08:59:48;;;;;;;2.17;2.07;;;17.00;83.80;;;;;;4977210;28;20446;-78
2022/10/11 09:02:36;;;;;;;2.53;2.33;;;17.00;84.20;;;;;;4980226;28;20493;-78
2022/10/11 09:05:04;;;;;;;2.20;2.10;;;17.00;84.40;;;;;;4977816;28;20431;-77
2022/10/11 09:07:44;;;;;;;2.27;2.17;;;17.10;84.30;;;;;;4977133;28;20450;-78
2022/10/11 09:10:36;;;;;;;2.13;2.03;;;17.10;84.30;;;;;;4976968;28;20441;-77
2022/10/11 09:13:14;;;;;;;2.20;2.10;;;17.10;84.40;;;;;;4960318;28;20458;-78
2022/10/11 09:15:47;;;;;;;1.90;1.80;;;17.10;84.40;;;;;;4978308;28;20438;-77
2022/10/11 09:18:43;;;;;;;2.03;1.93;;;17.10;84.10;;;;;;4976486;28;20776;-77
2022/10/11 09:21:19;;;;;;;2.40;2.30;;;17.10;84.00;;;;;;4976556;28;20474;-77
2022/10/11 09:24:09;;;;;;;2.50;2.30;;;17.10;84.40;;;;;;4976896;28;20469;-77
2022/10/11 09:26:42;;;;;;;2.47;2.30;;;17.10;84.50;;;;;;4977278;28;20454;-78
2022/10/11 09:29:17;;;;;;;2.10;2.00;;;16.90;84.20;;;;;;4976579;28;20486;-76
2022/10/11 09:31:48;;;;;;;2.23;2.03;;;16.80;84.90;;;;;;4976168;28;20520;-78
2022/10/11 09:34:15;;;;;;;2.47;2.27;;;16.70;85.10;;;;;;4976457;28;20430;-78
2022/10/11 09:36:53;;;;;;;2.50;2.30;;;16.80;85.10;;;;;;4976976;28;20450;-78
2022/10/11 09:39:28;;;;;;;2.17;2.07;;;16.70;85.40;;;;;;4976838;28;20438;-77
2022/10/11 09:42:00;;;;;;;2.60;2.40;;;16.70;85.60;;;;;;4976513;28;20933;-78
2022/10/11 09:44:29;;;;;;;2.40;2.30;;;16.80;85.50;;;;;;4976683;28;20686;-78
2022/10/11 09:46:58;;;;;;;2.00;1.90;;;16.90;85.30;;;;;;4975796;28;20794;-76
2022/10/11 09:49:30;;;;;;;2.10;2.00;;;16.90;85.00;;;;;;4976749;28;20459;-78
2022/10/11 09:52:00;;;;;;;2.07;1.97;;;16.80;84.80;;;;;;4976399;28;20467;-77
2022/10/11 09:54:38;;;;;;;2.30;2.20;;;16.90;85.00;;;;;;4975138;28;20445;-77
2022/10/11 09:57:05;;;;;;;2.40;2.30;;;16.90;84.60;;;;;;4976321;28;20434;-78
2022/10/11 09:59:34;;;;;;;1.90;1.80;;;16.90;84.80;;;;;;4975615;28;20950;-76
2022/10/11 10:02:22;;;;;;;2.40;2.20;;;16.90;84.80;;;;;;4975725;28;20871;-77
2022/10/11 10:04:59;;;;;;;2.13;1.93;;;16.90;84.60;;;;;;4976077;28;20423;-78
2022/10/11 10:07:26;;;;;;;2.50;2.40;;;16.90;84.10;;;;;;4975556;28;20514;-77
2022/10/11 10:09:53;;;;;;;2.23;2.13;;;16.80;84.40;;;;;;4975783;28;20449;-77
2022/10/11 10:12:22;;;;;;;2.13;2.03;;;16.70;84.60;;;;;;4975780;28;20478;-77
2022/10/11 10:14:58;;;;;;;2.27;2.17;;;16.60;84.70;;;;;;4975905;28;20450;-77
2022/10/11 10:17:26;;;;;;;2.40;2.30;;;16.50;85.40;;;;;;4975890;28;20438;-78
2022/10/11 10:19:59;;;;;;;2.30;2.10;;;16.70;85.20;;;;;;4975698;28;20465;-78
2022/10/11 10:22:28;;;;;;;1.90;1.80;;;16.90;85.10;;;;;;4975597;28;20470;-78
2022/10/11 10:24:57;;;;;;;2.20;2.07;;;16.90;84.40;;;;;;4975670;28;20449;-78
2022/10/11 10:27:26;;;;;;;1.93;1.83;;;17.00;84.40;;;;;;4975656;28;20441;-78
2022/10/11 10:30:12;;;;;;;1.93;1.83;;;17.10;84.40;;;;;;4976069;28;20474;-77
2022/10/11 10:32:47;;;;;;;2.23;2.13;;;17.20;84.10;;;;;;4976561;28;20497;-77
2022/10/11 10:35:25;;;;;;;2.40;2.30;;;17.30;83.50;;;;;;4975942;28;20485;-77
2022/10/11 10:37:57;;;;;;;2.07;1.97;;;17.30;83.50;;;;;;4976668;28;20917;-78
2022/10/11 10:40:32;;;;;;;2.30;2.10;;;17.50;83.40;;;;;;4975926;28;20437;-78
2022/10/11 10:42:59;;;;;;;1.90;1.80;;;17.60;82.80;;;;;;4975271;28;20469;-78
2022/10/11 10:45:36;;;;;;;2.00;1.90;;;17.70;83.10;;;;;;4975334;28;20477;-77
2022/10/11 10:48:20;;;;;;;2.00;1.90;;;17.70;82.60;;;;;;4975049;28;20829;-77
2022/10/11 10:50:54;;;;;;;2.27;2.17;;;17.70;82.20;;;;;;4974913;28;20481;-76
2022/10/11 10:53:27;;;;;;;1.90;1.80;;;17.60;82.30;;;;;;4975090;28;20495;-77
2022/10/11 10:56:00;;;;;;;2.30;2.20;;;17.70;82.30;;;;;;4975046;28;20441;-77
2022/10/11 10:58:41;;;;;;;2.10;2.00;;;17.70;82.00;;;;;;4975687;28;20458;-77
2022/10/11 11:01:14;;;;;;;1.80;1.70;;;17.70;81.80;;;;;;4975921;28;20489;-78
2022/10/11 11:03:47;;;;;;;2.27;2.17;;;17.70;81.50;;;;;;4977790;28;20473;-79
2022/10/11 11:06:22;;;;;;;2.13;2.03;;;17.80;81.60;;;;;;4978439;28;20431;-79
2022/10/11 11:09:00;;;;;;;2.40;2.20;;;17.80;81.10;;;;;;4975830;28;20429;-78
2022/10/11 11:11:39;;;;;;;2.60;2.40;;;17.80;81.30;;;;;;4975254;28;20474;-78
2022/10/11 11:14:15;;;;;;;2.27;2.07;;;17.90;81.40;;;;;;4978531;28;20461;-77
2022/10/11 11:16:48;;;;;;;2.07;1.90;;;17.80;81.60;;;;;;4976460;28;20442;-77
2022/10/11 11:19:27;;;;;;;2.20;2.00;;;17.70;82.00;;;;;;4975741;28;20446;-77
2022/10/11 11:21:59;;;;;;;1.60;1.50;;;17.70;81.70;;;;;;4977547;28;20473;-77
2022/10/11 11:24:38;;;;;;;1.97;1.87;;;17.70;81.80;;;;;;4976674;28;20478;-78
2022/10/11 11:27:15;;;;;;;2.17;2.00;;;17.70;82.10;;;;;;4975683;28;20434;-79
2022/10/11 11:29:51;;;;;;;2.30;2.20;;;17.70;81.60;;;;;;4982307;28;20902;-77
2022/10/11 11:32:28;;;;;;;1.80;1.70;;;17.70;81.60;;;;;;4975775;28;20474;-77
2022/10/11 11:35:01;;;;;;;1.63;1.53;;;17.60;82.10;;;;;;4974550;28;20860;-78
2022/10/11 11:37:32;;;;;;;1.83;1.73;;;17.70;81.10;;;;;;4974928;28;20430;-78
2022/10/11 11:40:06;;;;;;;1.80;1.70;;;17.60;80.80;;;;;;4975924;28;20434;-77
2022/10/11 11:42:39;;;;;;;1.93;1.83;;;17.70;81.00;;;;;;4974852;28;20548;-78
2022/10/11 11:45:17;;;;;;;2.57;2.37;;;17.60;81.60;;;;;;4976512;28;20474;-78
2022/10/11 11:47:51;;;;;;;1.77;1.67;;;17.70;81.10;;;;;;4976052;28;20445;-79
2022/10/11 11:50:22;;;;;;;1.70;1.60;;;17.80;80.90;;;;;;4975031;28;20814;-77
2022/10/11 11:52:52;;;;;;;2.00;1.90;;;17.70;81.30;;;;;;4976778;28;20474;-78
2022/10/11 11:55:26;;;;;;;1.90;1.80;;;17.70;81.00;;;;;;4976549;28;20493;-78
2022/10/11 11:57:59;;;;;;;1.70;1.60;;;17.90;80.80;;;;;;4976176;28;20441;-78
2022/10/11 12:00:30;;;;;;;1.90;1.80;;;17.80;80.80;;;;;;4974350;28;20446;-77
2022/10/11 12:03:00;;;;;;;2.10;2.00;;;17.90;80.70;;;;;;4974061;28;20469;-77
2022/10/11 12:05:31;;;;;;;1.80;1.70;;;17.90;81.10;;;;;;4974614;28;20446;-77
2022/10/11 12:08:00;;;;;;;2.00;1.90;;;18.00;80.90;;;;;;4974428;28;20434;-78
2022/10/11 12:10:33;;;;;;;1.70;1.60;;;17.90;80.80;;;;;;4974303;28;20968;-77
2022/10/11 12:13:15;;;;;;;2.03;1.93;;;17.90;80.50;;;;;;4974357;28;20439;-78
2022/10/11 12:15:55;;;;;;;2.23;2.13;;;17.90;80.60;;;;;;4974482;28;20434;-78
2022/10/11 12:18:22;;;;;;;2.00;1.90;;;17.90;80.60;;;;;;4976340;28;20442;-78
2022/10/11 12:21:02;;;;;;;2.10;2.00;;;17.90;80.40;;;;;;4977913;28;20469;-79
2022/10/11 12:23:41;;;;;;;1.80;1.70;;;17.90;80.20;;;;;;4990289;28;20474;-77
2022/10/11 12:26:43;;;;;;;1.70;1.60;;;17.90;80.00;;;;;;4990349;28;20421;-78
2022/10/11 12:29:45;;;;;;;3.37;2.13;;;17.70;80.70;;;;;;4990610;28;20430;-78
2022/10/11 12:32:49;;;;;;;1.97;1.87;;;17.50;80.80;;;;;;4991463;28;20477;-79
2022/10/11 12:35:49;;;;;;;1.70;1.60;;;17.60;81.40;;;;;;4986274;28;20450;-79
2022/10/11 12:38:21;;;;;;;1.60;1.50;;;17.60;80.80;;;;;;4990366;28;20435;-78
2022/10/11 12:40:49;;;;;;;1.40;1.40;;;17.70;80.80;;;;;;4989766;28;20478;-79
2022/10/11 12:43:29;;;;;;;1.50;1.40;;;17.70;80.10;;;;;;4991424;28;20550;-79
2022/10/11 12:45:56;;;;;;;1.53;1.50;;;17.80;80.20;;;;;;4989507;28;20445;-79
2022/10/11 12:48:48;;;;;;;1.53;1.47;;;17.90;80.70;;;;;;4989977;28;20469;-78
2022/10/11 12:51:33;;;;;;;1.17;1.17;;;18.00;79.90;;;;;;4986921;28;20474;-77
2022/10/11 12:54:35;;;;;;;1.40;1.30;;;18.20;79.60;;;;;;4992796;28;20430;-79
2022/10/11 12:57:40;;;;;;;1.43;1.33;;;18.50;77.80;;;;;;4989032;28;20428;-77
2022/10/11 13:00:19;;;;;;;1.40;1.30;;;18.70;77.30;;;;;;4990854;28;20431;-79
2022/10/11 13:02:47;;;;;;;1.10;1.10;;;18.90;76.60;;;;;;4991995;28;20533;-78
2022/10/11 13:05:21;;;;;;;1.20;1.20;;;19.10;75.80;;;;;;4989341;28;20490;-77
2022/10/11 13:07:50;;;;;;;1.40;1.30;;;19.10;76.10;;;;;;4988215;28;20439;-78
2022/10/11 13:10:24;;;;;;;1.50;1.40;;;19.20;75.30;;;;;;4989991;28;20472;-80
2022/10/11 13:12:53;;;;;;;1.40;1.30;;;19.10;76.30;;;;;;4989563;28;20438;-78
2022/10/11 13:15:22;;;;;;;1.10;1.10;;;19.20;75.20;;;;;;4991554;28;20442;-79
2022/10/11 13:17:51;;;;;;;1.50;1.40;;;19.30;74.60;;;;;;4990222;28;20463;-75
2022/10/11 13:20:21;;;;;;;1.40;1.33;;;19.40;74.80;;;;;;4989396;28;20454;-79
2022/10/11 13:22:50;;;;;;;1.47;1.37;;;19.50;75.00;;;;;;4988199;28;20466;-77
2022/10/11 13:25:21;;;;;;;1.27;1.20;;;19.60;74.90;;;;;;4987872;28;20529;-77
2022/10/11 13:27:49;;;;;;;1.57;1.47;;;19.60;74.10;;;;;;4987836;28;20439;-78
2022/10/11 13:30:18;;;;;;;1.17;1.10;;;19.60;74.10;;;;;;4987374;28;20438;-77
2022/10/11 13:32:46;;;;;;;1.10;1.00;;;19.70;74.20;;;;;;4987871;28;20493;-78
2022/10/11 13:35:17;;;;;;;1.30;1.20;;;19.60;73.80;;;;;;4987535;28;20455;-78
2022/10/11 13:37:47;;;;;;;1.43;1.40;;;19.50;73.90;;;;;;4988610;28;20422;-78
2022/10/11 13:40:15;;;;;;;1.57;1.47;;;19.40;74.00;;;;;;4987588;28;20446;-77
2022/10/11 13:42:44;;;;;;;1.50;1.40;;;19.30;74.20;;;;;;4987530;28;21410;-77
2022/10/11 13:45:13;;;;;;;1.33;1.30;;;19.20;74.50;;;;;;4988471;28;20490;-78
2022/10/11 13:47:40;;;;;;;1.60;1.50;;;19.10;74.50;;;;;;4988817;28;20447;-77
2022/10/11 13:50:21;;;;;;;1.20;1.10;;;19.00;75.20;;;;;;4987589;28;20455;-77
2022/10/11 13:52:54;;;;;;;1.40;1.30;;;19.00;75.10;;;;;;4988223;28;20494;-77
2022/10/11 13:55:27;;;;;;;2.40;1.23;;;19.00;75.30;;;;;;4987420;28;20973;-77
2022/10/11 13:57:57;;;;;;;1.47;1.47;;;18.90;75.80;;;;;;4988574;28;20918;-76
2022/10/11 14:00:28;;;;;;;1.50;1.40;;;18.80;76.30;;;;;;4989737;28;20446;-78
2022/10/11 14:02:58;;;;;;;1.40;1.30;;;18.70;76.90;;;;;;4985192;28;20462;-78
2022/10/11 14:05:32;;;;;;;1.43;1.33;;;18.50;77.00;;;;;;4976468;28;21004;-78
2022/10/11 14:08:01;;;;;;;1.37;1.27;;;18.50;76.30;;;;;;4976694;28;20427;-78
2022/10/11 14:10:28;;;;;;;1.30;1.20;;;18.30;77.00;;;;;;4977229;28;20450;-78
2022/10/11 14:13:06;;;;;;;1.33;1.00;;;18.30;77.80;;;;;;4978182;28;20450;-79
2022/10/11 14:15:34;;;;;;;1.20;1.20;;;18.30;77.50;;;;;;4978065;28;20430;-78
2022/10/11 14:18:02;;;;;;;1.00;1.00;;;18.30;77.60;;;;;;4977955;28;20461;-78
2022/10/11 14:20:38;;;;;;;1.50;1.40;;;18.20;78.30;;;;;;4978341;28;20455;-79
2022/10/11 14:23:05;;;;;;;1.07;1.07;;;18.20;78.20;;;;;;4977221;28;20456;-77
2022/10/11 14:25:33;;;;;;;1.30;1.20;;;18.20;78.50;;;;;;4975714;28;20478;-78
2022/10/11 14:28:01;;;;;;;1.30;1.30;;;18.20;78.60;;;;;;4975701;28;20446;-78
2022/10/11 14:30:30;;;;;;;1.10;1.10;;;18.20;78.20;;;;;;4976254;28;20461;-78
2022/10/11 14:32:59;;;;;;;1.10;1.10;;;18.20;78.20;;;;;;4976308;28;20545;-78
2022/10/11 14:35:28;;;;;;;1.33;1.23;;;18.20;77.80;;;;;;4975878;28;20473;-78
2022/10/11 14:37:55;;;;;;;1.30;1.20;;;18.30;77.60;;;;;;4975281;28;20446;-78
2022/10/11 14:40:25;;;;;;;1.30;1.20;;;18.40;77.60;;;;;;4974932;28;20829;-78
2022/10/11 14:42:52;;;;;;;1.00;1.00;;;18.10;78.10;;;;;;4976501;28;20446;-77
2022/10/11 14:45:20;;;;;;;1.40;1.10;;;18.30;78.20;;;;;;4975729;28;20537;-78
2022/10/11 14:47:47;;;;;;;1.00;1.00;;;18.40;77.80;;;;;;4976059;28;20907;-79
2022/10/11 14:50:39;;;;;;;0.87;0.87;;;18.60;77.20;;;;;;4977082;28;20446;-77
2022/10/11 14:53:07;;;;;;;1.20;1.20;;;18.90;76.60;;;;;;4975481;28;20462;-78
2022/10/11 14:55:36;;;;;;;1.20;1.10;;;19.00;76.50;;;;;;4976361;28;20442;-79
2022/10/11 14:58:03;;;;;;;1.00;1.00;;;19.10;76.10;;;;;;4975548;28;20541;-78
2022/10/11 15:00:31;;;;;;;1.03;1.03;;;19.10;76.00;;;;;;4975883;28;20446;-77
2022/10/11 15:02:58;;;;;;;1.03;0.93;;;19.10;75.80;;;;;;4975787;28;20462;-79
2022/10/11 15:05:27;;;;;;;1.10;1.10;;;19.10;75.90;;;;;;4975617;28;20552;-78
2022/10/11 15:07:54;;;;;;;1.30;1.20;;;19.10;75.90;;;;;;4975466;28;20450;-78
2022/10/11 15:10:24;;;;;;;1.30;1.20;;;19.00;75.70;;;;;;4978593;28;20454;-79
2022/10/11 15:12:52;;;;;;;1.50;1.40;;;18.90;76.20;;;;;;4978219;28;20442;-78
2022/10/11 15:15:21;;;;;;;1.37;1.30;;;18.90;76.40;;;;;;4977206;28;20477;-77
2022/10/11 15:17:52;;;;;;;1.00;1.00;;;18.60;76.40;;;;;;4975079;28;20450;-78
2022/10/11 15:20:23;;;;;;;1.20;1.20;;;18.50;76.60;;;;;;4975098;28;20431;-77
2022/10/11 15:22:50;;;;;;;1.70;1.60;;;18.30;76.90;;;;;;4975550;28;20926;-77
2022/10/11 15:25:17;;;;;;;1.20;1.10;;;18.20;77.60;;;;;;4974669;28;20486;-77
2022/10/11 15:27:44;;;;;;;1.00;1.00;;;18.20;77.60;;;;;;4974640;28;20829;-79
2022/10/11 15:30:16;;;;;;;1.13;1.10;;;18.30;77.70;;;;;;4974859;28;20456;-79
2022/10/11 15:32:43;;;;;;;1.40;1.30;;;18.30;77.50;;;;;;4975249;28;20470;-78
2022/10/11 15:35:11;;;;;;;1.57;1.47;;;18.20;77.50;;;;;;4988708;28;20457;-78
2022/10/11 15:37:38;;;;;;;1.23;1.20;;;18.30;77.30;;;;;;4989146;28;20454;-78
2022/10/11 15:40:19;;;;;;;1.03;1.03;;;18.30;77.50;;;;;;4989166;28;20454;-79
2022/10/11 15:42:46;;;;;;;1.00;1.00;;;18.10;77.80;;;;;;4988782;28;20494;-77
2022/10/11 15:45:13;;;;;;;1.10;1.00;;;18.20;77.80;;;;;;4986724;28;20476;-79
2022/10/11 15:47:40;;;;;;;1.13;1.13;;;18.20;77.70;;;;;;4988750;28;20507;-78
2022/10/11 15:50:17;;;;;;;1.20;1.13;;;18.20;77.60;;;;;;4989549;28;20809;-78
2022/10/11 15:52:45;;;;;;;1.13;1.00;;;18.10;77.70;;;;;;4989188;28;20470;-77
2022/10/11 15:55:11;;;;;;;1.20;1.20;;;18.10;77.90;;;;;;4993342;28;20450;-77
2022/10/11 15:57:38;;;;;;;1.40;1.30;;;18.10;78.00;;;;;;4981400;28;20455;-78
2022/10/11 16:00:06;;;;;;;1.20;1.20;;;18.10;78.00;;;;;;4978657;28;20458;-78
2022/10/11 16:02:32;;;;;;;1.33;1.23;;;18.00;78.30;;;;;;4978298;28;20492;-78
2022/10/11 16:04:59;;;;;;;1.20;1.10;;;17.90;78.60;;;;;;4978437;28;20482;-78